createdAt,value
2022-09-16T00:02:23.798Z,73.17
2022-09-16T00:04:50.328Z,72.66
2022-09-16T00:07:16.844Z,72.81
2022-09-16T00:09:43.398Z,72.85
2022-09-16T00:12:09.994Z,73.99
2022-09-16T00:14:37.956Z,75.26
2022-09-16T00:17:04.559Z,74.72
2022-09-16T00:19:31.026Z,74.84
2022-09-16T00:21:57.544Z,75.56
2022-09-16T00:24:24.118Z,75.80
2022-09-16T00:26:50.660Z,76.00
2022-09-16T00:29:17.147Z,76.17
2022-09-16T00:31:45.106Z,76.16
2022-09-16T00:34:11.621Z,76.49
2022-09-16T00:36:38.133Z,76.86
2022-09-16T00:39:04.633Z,77.18
2022-09-16T00:41:32.070Z,78.06
2022-09-16T00:44:01.058Z,78.46
2022-09-16T00:46:34.443Z,78.50
2022-09-16T00:49:05.662Z,79.61
2022-09-16T00:51:32.894Z,79.46
2022-09-16T00:54:04.499Z,79.44
2022-09-16T00:56:35.116Z,79.25
2022-09-16T00:59:05.897Z,79.25
2022-09-16T01:01:32.960Z,79.87
2022-09-16T01:04:05.563Z,79.85
2022-09-16T01:06:37.915Z,79.93
2022-09-16T01:09:04.504Z,80.01
2022-09-16T01:11:31.063Z,80.29
2022-09-16T01:13:58.247Z,80.59
2022-09-16T01:16:33.476Z,80.60
2022-09-16T01:19:12.441Z,80.52
2022-09-16T01:21:45.218Z,80.51
2022-09-16T01:24:34.062Z,80.63
2022-09-16T01:27:18.461Z,80.77
2022-09-16T01:30:05.660Z,80.51
2022-09-16T01:32:43.766Z,81.29
2022-09-16T01:35:20.463Z,81.29
2022-09-16T01:37:56.738Z,81.52
2022-09-16T01:40:31.989Z,81.45
2022-09-16T01:43:08.389Z,81.68
2022-09-16T01:45:38.704Z,81.89
2022-09-16T01:48:11.869Z,82.20
2022-09-16T01:50:44.018Z,82.21
2022-09-16T01:53:16.703Z,82.54
2022-09-16T01:55:51.051Z,82.59
2022-09-16T01:58:23.161Z,82.81
2022-09-16T02:00:53.198Z,83.16
2022-09-16T02:03:24.703Z,83.58
2022-09-16T02:05:55.902Z,83.94
2022-09-16T02:08:26.450Z,83.95
2022-09-16T02:10:57.141Z,83.75
2022-09-16T02:13:27.884Z,83.59
2022-09-16T02:15:59.555Z,83.67
2022-09-16T02:18:30.046Z,84.43
2022-09-16T02:21:00.325Z,84.54
2022-09-16T02:23:31.404Z,84.27
2022-09-16T02:26:00.036Z,84.58
2022-09-16T02:28:30.665Z,84.44
2022-09-16T02:31:00.147Z,84.47
2022-09-16T02:33:35.844Z,84.11
2022-09-16T02:36:04.591Z,84.28
2022-09-16T02:38:35.115Z,84.63
2022-09-16T02:41:02.367Z,84.94
2022-09-16T02:43:29.820Z,85.22
2022-09-16T02:46:05.032Z,85.15
2022-09-16T02:48:42.366Z,84.69
2022-09-16T02:51:15.958Z,84.58
2022-09-16T02:53:49.518Z,84.63
2022-09-16T02:56:23.169Z,84.42
2022-09-16T02:58:50.332Z,84.64
2022-09-16T03:01:19.013Z,84.65
2022-09-16T03:03:47.046Z,84.75
2022-09-16T03:06:20.269Z,85.21
2022-09-16T03:08:48.302Z,85.37
2022-09-16T03:11:49.197Z,85.92
2022-09-16T03:14:41.447Z,86.21
2022-09-16T03:17:20.142Z,86.64
2022-09-16T03:19:58.903Z,87.26
2022-09-16T03:22:37.196Z,87.51
2022-09-16T03:25:11.000Z,87.67
2022-09-16T03:27:46.022Z,87.80
2022-09-16T03:30:13.094Z,87.62
2022-09-16T03:32:45.615Z,87.59
2022-09-16T03:35:18.433Z,87.51
2022-09-16T03:37:46.506Z,87.77
2022-09-16T03:40:15.769Z,87.93
2022-09-16T03:42:43.790Z,87.50
2022-09-16T03:45:14.423Z,87.80
2022-09-16T03:47:41.133Z,87.96
2022-09-16T03:50:08.393Z,88.30
2022-09-16T03:52:36.371Z,88.46
2022-09-16T03:55:03.401Z,88.87
2022-09-16T03:57:30.015Z,89.24
2022-09-16T03:59:56.587Z,89.61
2022-09-16T04:02:23.195Z,89.66
2022-09-16T04:04:49.738Z,90.31
2022-09-16T04:07:16.347Z,90.35
2022-09-16T04:09:44.353Z,90.70
2022-09-16T04:12:10.988Z,90.93
2022-09-16T04:14:37.524Z,91.17
2022-09-16T04:17:04.358Z,91.52
2022-09-16T04:19:30.930Z,91.48
2022-09-16T04:21:57.509Z,91.58
2022-09-16T04:24:24.923Z,91.49
2022-09-16T04:26:52.826Z,91.15
2022-09-16T04:29:19.361Z,91.26
2022-09-16T04:31:45.868Z,91.20
2022-09-16T04:34:13.022Z,91.20
2022-09-16T04:36:39.701Z,91.10
2022-09-16T04:39:06.508Z,91.34
2022-09-16T04:41:33.109Z,91.10
2022-09-16T04:44:01.209Z,91.09
2022-09-16T04:46:30.262Z,91.13
2022-09-16T04:48:56.843Z,91.48
2022-09-16T04:51:24.516Z,91.30
2022-09-16T04:53:51.181Z,91.62
2022-09-16T04:56:19.771Z,91.05
2022-09-16T04:58:47.754Z,91.08
2022-09-16T05:01:17.269Z,91.29
2022-09-16T05:03:45.598Z,91.25
2022-09-16T05:06:18.370Z,91.23
2022-09-16T05:08:47.258Z,91.10
2022-09-16T05:11:16.479Z,90.84
2022-09-16T05:13:43.107Z,90.85
2022-09-16T05:16:11.931Z,90.95
2022-09-16T05:18:41.645Z,91.22
2022-09-16T05:21:10.626Z,91.39
2022-09-16T05:23:37.638Z,91.01
2022-09-16T05:26:05.391Z,90.98
2022-09-16T05:28:32.230Z,91.36
2022-09-16T05:31:08.049Z,91.33
2022-09-16T05:33:34.688Z,91.28
2022-09-16T05:36:05.700Z,91.36
2022-09-16T05:38:32.334Z,90.85
2022-09-16T05:40:58.966Z,90.61
2022-09-16T05:43:25.530Z,91.02
2022-09-16T05:45:52.159Z,90.57
2022-09-16T05:48:18.794Z,90.50
2022-09-16T05:50:51.461Z,89.53
2022-09-16T05:53:19.445Z,87.97
2022-09-16T05:55:54.888Z,87.51
2022-09-16T05:58:21.767Z,87.74
2022-09-16T06:00:48.302Z,86.90
2022-09-16T06:03:15.030Z,86.74
2022-09-16T06:05:45.540Z,86.15
2022-09-16T06:08:12.562Z,86.06
2022-09-16T06:10:41.368Z,85.33
2022-09-16T06:13:08.043Z,85.45
2022-09-16T06:15:34.728Z,85.17
2022-09-16T06:18:06.147Z,84.41
2022-09-16T06:20:32.950Z,83.96
2022-09-16T06:22:59.456Z,83.26
2022-09-16T06:25:26.042Z,83.32
2022-09-16T06:27:53.910Z,82.47
2022-09-16T06:30:20.435Z,82.26
2022-09-16T06:32:46.961Z,81.52
2022-09-16T06:35:13.555Z,81.13
2022-09-16T06:37:40.134Z,80.06
2022-09-16T06:40:07.758Z,79.17
2022-09-16T06:42:34.356Z,78.97
2022-09-16T06:45:06.155Z,78.36
2022-09-16T06:47:32.882Z,77.42
2022-09-16T06:49:59.450Z,76.89
2022-09-16T06:52:26.734Z,76.39
2022-09-16T06:54:53.285Z,76.07
2022-09-16T06:57:20.031Z,76.01
2022-09-16T06:59:46.566Z,75.49
2022-09-16T07:02:14.583Z,74.80
2022-09-16T07:04:41.315Z,74.82
2022-09-16T07:07:10.023Z,74.01
2022-09-16T07:09:36.737Z,73.75
2022-09-16T07:12:03.782Z,73.89
2022-09-16T07:14:30.325Z,73.15
2022-09-16T07:16:56.975Z,73.17
2022-09-16T07:19:25.113Z,72.94
2022-09-16T07:21:51.786Z,72.97
2022-09-16T07:24:18.310Z,72.75
2022-09-16T07:26:45.735Z,72.49
2022-09-16T07:29:14.216Z,72.73
2022-09-16T07:31:41.448Z,72.25
2022-09-16T07:34:10.115Z,72.21
2022-09-16T07:36:39.409Z,72.25
2022-09-16T07:39:07.447Z,71.93
2022-09-16T07:41:36.276Z,72.32
2022-09-16T07:44:05.558Z,72.31
2022-09-16T07:46:35.632Z,69.97
2022-09-16T07:49:04.213Z,71.30
2022-09-16T07:51:31.153Z,71.21
2022-09-16T07:54:00.940Z,71.06
2022-09-16T07:56:29.447Z,70.48
2022-09-16T07:58:56.722Z,69.84
2022-09-16T08:01:23.848Z,69.72
2022-09-16T08:03:50.698Z,70.29
2022-09-16T08:06:19.976Z,69.11
2022-09-16T08:08:47.016Z,69.30
2022-09-16T08:11:15.539Z,68.81
2022-09-16T08:13:43.497Z,68.92
2022-09-16T08:16:12.936Z,67.38
2022-09-16T08:18:39.854Z,67.52
2022-09-16T08:21:07.833Z,67.96
2022-09-16T08:23:34.498Z,67.68
2022-09-16T08:26:01.329Z,66.71
2022-09-16T08:28:39.938Z,67.31
2022-09-16T08:31:17.268Z,66.16
2022-09-16T08:33:44.412Z,66.02
2022-09-16T08:36:13.281Z,65.70
2022-09-16T08:38:39.826Z,62.95
2022-09-16T08:41:16.287Z,63.76
2022-09-16T08:43:51.149Z,61.26
2022-09-16T08:46:26.006Z,61.79
2022-09-16T08:48:59.360Z,62.51
2022-09-16T08:51:27.339Z,62.06
2022-09-16T08:53:57.871Z,62.50
2022-09-16T08:56:27.531Z,61.99
2022-09-16T08:58:58.443Z,61.11
2022-09-16T09:01:32.585Z,62.19
2022-09-16T09:03:59.324Z,61.85
2022-09-16T09:06:43.354Z,61.11
2022-09-16T09:09:22.027Z,62.13
2022-09-16T09:11:56.086Z,62.49
2022-09-16T09:14:36.194Z,61.89
2022-09-16T09:17:10.827Z,62.00
2022-09-16T09:19:48.350Z,62.48
2022-09-16T09:22:26.826Z,62.97
2022-09-16T09:25:20.546Z,62.59
2022-09-16T09:27:59.450Z,63.15
2022-09-16T09:30:28.721Z,62.58
2022-09-16T09:33:22.193Z,63.45
2022-09-16T09:36:29.047Z,62.20
2022-09-16T09:39:11.435Z,62.12
2022-09-16T09:41:43.222Z,61.56
2022-09-16T09:44:35.146Z,60.79
2022-09-16T09:47:08.421Z,59.89
2022-09-16T09:49:39.793Z,59.56
2022-09-16T09:52:15.155Z,59.29
2022-09-16T09:54:45.463Z,56.95
2022-09-16T09:57:17.831Z,57.47
2022-09-16T09:59:49.894Z,57.70
2022-09-16T10:02:20.286Z,56.98
2022-09-16T10:04:47.346Z,56.18
2022-09-16T10:07:17.224Z,56.41
2022-09-16T10:09:49.602Z,53.87
2022-09-16T10:12:27.254Z,53.63
2022-09-16T10:14:53.846Z,53.69
2022-09-16T10:17:21.766Z,53.51
2022-09-16T10:19:53.062Z,52.49
2022-09-16T10:22:23.774Z,51.93
2022-09-16T10:24:55.706Z,51.69
2022-09-16T10:27:24.737Z,52.54
2022-09-16T10:30:04.427Z,52.73
2022-09-16T10:32:37.861Z,52.35
2022-09-16T10:35:07.998Z,52.83
2022-09-16T10:37:34.820Z,53.62
2022-09-16T10:40:01.839Z,52.37
2022-09-16T10:42:29.352Z,52.27
2022-09-16T10:45:03.016Z,52.43
2022-09-16T10:47:33.985Z,52.10
2022-09-16T10:50:02.985Z,52.49
2022-09-16T10:52:31.073Z,52.52
2022-09-16T10:55:09.452Z,52.62
2022-09-16T10:57:36.155Z,52.81
2022-09-16T11:00:10.399Z,50.29
2022-09-16T11:02:56.161Z,50.48
2022-09-16T11:05:32.244Z,50.35
2022-09-16T11:08:11.118Z,51.91
2022-09-16T11:10:45.081Z,51.84
2022-09-16T11:13:20.875Z,50.71
2022-09-16T11:16:03.083Z,49.93
2022-09-16T11:18:42.618Z,50.24
2022-09-16T11:21:25.261Z,48.94
2022-09-16T11:24:06.383Z,48.42
2022-09-16T11:26:43.360Z,47.35
2022-09-16T11:29:27.171Z,47.06
2022-09-16T11:32:00.109Z,46.54
2022-09-16T11:34:42.913Z,45.74
2022-09-16T11:37:18.210Z,46.68
2022-09-16T11:39:59.633Z,47.06
2022-09-16T11:42:33.728Z,46.92
2022-09-16T11:45:09.544Z,45.66
2022-09-16T11:47:48.343Z,46.10
2022-09-16T11:50:28.820Z,44.32
2022-09-16T11:53:22.348Z,45.09
2022-09-16T11:55:55.506Z,43.89
2022-09-16T11:58:31.879Z,44.32
2022-09-16T12:01:06.327Z,43.80
2022-09-16T12:03:41.505Z,43.73
2022-09-16T12:06:13.911Z,44.08
2022-09-16T12:08:53.244Z,45.58
2022-09-16T12:11:24.701Z,45.64
2022-09-16T12:14:05.182Z,45.37
2022-09-16T12:16:39.340Z,45.22
2022-09-16T12:19:12.667Z,45.91
2022-09-16T12:21:46.626Z,44.56
2022-09-16T12:24:18.903Z,45.14
2022-09-16T12:26:52.824Z,45.88
2022-09-16T12:29:23.130Z,45.55
2022-09-16T12:31:57.772Z,45.30
2022-09-16T12:34:32.991Z,45.04
2022-09-16T12:37:05.232Z,44.19
2022-09-16T12:39:31.867Z,44.39
2022-09-16T12:42:21.536Z,43.33
2022-09-16T12:45:20.491Z,45.56
2022-09-16T12:48:17.467Z,45.83
2022-09-16T12:50:54.318Z,48.56
2022-09-16T12:53:55.685Z,49.47
2022-09-16T12:56:48.922Z,50.54
2022-09-16T12:59:35.334Z,51.73
2022-09-16T13:02:10.806Z,53.02
2022-09-16T13:04:41.150Z,52.28
2022-09-16T13:07:07.998Z,52.51
2022-09-16T13:09:39.085Z,52.07
2022-09-16T13:12:36.800Z,51.88
2022-09-16T13:15:06.020Z,53.06
2022-09-16T13:17:34.615Z,52.83
2022-09-16T13:20:05.406Z,53.21
2022-09-16T13:22:37.330Z,56.27
2022-09-16T13:25:14.775Z,55.81
2022-09-16T13:27:55.756Z,59.09
2022-09-16T13:30:34.628Z,60.48
2022-09-16T13:33:26.479Z,63.37
2022-09-16T13:36:14.184Z,64.16
2022-09-16T13:38:42.581Z,66.13
2022-09-16T13:41:13.250Z,65.54
2022-09-16T13:43:51.490Z,68.01
2022-09-16T13:46:33.578Z,67.99
2022-09-16T13:49:20.247Z,68.17
2022-09-16T13:51:49.447Z,70.12
2022-09-16T13:54:25.317Z,70.06
2022-09-16T13:57:16.431Z,70.35
2022-09-16T13:59:59.385Z,69.97
2022-09-16T14:02:42.574Z,70.93
2022-09-16T14:05:32.397Z,72.15
2022-09-16T14:08:10.965Z,70.62
2022-09-16T14:10:47.743Z,70.96
2022-09-16T14:13:18.224Z,71.27
2022-09-16T14:15:47.845Z,70.75
2022-09-16T14:18:17.128Z,70.17
2022-09-16T14:21:00.315Z,70.11
2022-09-16T14:23:27.653Z,70.53
2022-09-16T14:25:55.538Z,70.46
2022-09-16T14:28:25.727Z,69.80
2022-09-16T14:30:54.942Z,68.95
2022-09-16T14:33:26.157Z,68.19
2022-09-16T14:35:55.451Z,67.92
2022-09-16T14:38:44.812Z,67.00
2022-09-16T14:41:22.999Z,67.36
2022-09-16T14:43:52.894Z,66.86
2022-09-16T14:46:19.670Z,67.47
2022-09-16T14:48:47.039Z,65.31
2022-09-16T14:51:21.221Z,64.57
2022-09-16T14:54:08.980Z,64.70
2022-09-16T14:56:38.668Z,63.83
2022-09-16T14:59:10.238Z,61.66
2022-09-16T15:01:37.052Z,60.63
2022-09-16T15:04:09.549Z,60.73
2022-09-16T15:06:43.032Z,60.12
2022-09-16T15:09:16.707Z,60.33
2022-09-16T15:11:48.839Z,59.84
2022-09-16T15:14:17.936Z,61.02
2022-09-16T15:16:48.293Z,60.21
2022-09-16T15:19:21.122Z,59.36
2022-09-16T15:21:48.624Z,56.84
2022-09-16T15:24:19.014Z,57.97
2022-09-16T15:26:47.181Z,58.09
2022-09-16T15:29:28.896Z,58.85
2022-09-16T15:32:05.853Z,58.80
2022-09-16T15:34:32.459Z,60.00
2022-09-16T15:37:03.237Z,60.77
2022-09-16T15:39:31.305Z,60.92
2022-09-16T15:42:11.605Z,62.55
2022-09-16T15:44:45.940Z,62.45
2022-09-16T15:47:18.410Z,62.82
2022-09-16T15:49:46.086Z,62.63
2022-09-16T15:52:13.275Z,60.57
2022-09-16T15:54:48.786Z,61.17
2022-09-16T15:57:26.086Z,58.92
2022-09-16T16:00:00.955Z,59.35
2022-09-16T16:02:34.028Z,55.34
2022-09-16T16:05:06.751Z,57.24
2022-09-16T16:07:42.451Z,56.31
2022-09-16T16:10:17.755Z,57.03
2022-09-16T16:12:45.028Z,56.87
2022-09-16T16:15:13.599Z,56.09
2022-09-16T16:17:40.329Z,56.91
2022-09-16T16:20:07.479Z,57.15
2022-09-16T16:22:34.560Z,57.53
2022-09-16T16:25:01.287Z,57.69
2022-09-16T16:27:27.865Z,57.12
2022-09-16T16:29:54.354Z,57.45
2022-09-16T16:32:22.303Z,56.78
2022-09-16T16:34:49.284Z,58.20
2022-09-16T16:37:40.200Z,58.41
2022-09-16T16:40:07.992Z,59.45
2022-09-16T16:42:35.642Z,60.62
2022-09-16T16:45:02.383Z,60.94
2022-09-16T16:47:31.683Z,62.26
2022-09-16T16:49:58.199Z,62.54
2022-09-16T16:52:24.726Z,62.28
2022-09-16T16:54:51.235Z,62.09
2022-09-16T16:57:17.727Z,62.68
2022-09-16T16:59:44.225Z,62.92
2022-09-16T17:02:11.990Z,63.68
2022-09-16T17:04:39.901Z,63.94
2022-09-16T17:07:25.141Z,64.15
2022-09-16T17:09:52.246Z,64.80
2022-09-16T17:12:18.758Z,65.02
2022-09-16T17:14:45.449Z,65.36
2022-09-16T17:17:12.050Z,65.15
2022-09-16T17:19:39.966Z,65.33
2022-09-16T17:22:06.469Z,64.83
2022-09-16T17:24:33.046Z,65.72
2022-09-16T17:26:59.551Z,66.22
2022-09-16T17:29:26.142Z,66.76
2022-09-16T17:31:52.683Z,67.04
2022-09-16T17:34:19.231Z,67.46
2022-09-16T17:36:47.063Z,67.21
2022-09-16T17:39:15.091Z,67.80
2022-09-16T17:41:42.051Z,67.68
2022-09-16T17:44:10.026Z,68.00
2022-09-16T17:46:36.690Z,68.17
2022-09-16T17:49:05.784Z,68.22
2022-09-16T17:51:32.878Z,69.13
2022-09-16T17:54:00.930Z,70.07
2022-09-16T17:56:27.515Z,69.62
2022-09-16T17:58:54.339Z,69.89
2022-09-16T18:01:22.631Z,70.28
2022-09-16T18:03:50.857Z,70.57
2022-09-16T18:06:19.042Z,70.93
2022-09-16T18:08:46.182Z,71.44
2022-09-16T18:11:15.486Z,72.22
2022-09-16T18:13:42.943Z,72.65
2022-09-16T18:16:12.328Z,72.74
2022-09-16T18:18:41.150Z,73.29
2022-09-16T18:21:10.466Z,73.49
2022-09-16T18:23:37.067Z,73.29
2022-09-16T18:26:05.538Z,73.95
2022-09-16T18:28:51.690Z,74.12
2022-09-16T18:31:23.392Z,74.94
2022-09-16T18:33:50.859Z,75.29
2022-09-16T18:36:17.507Z,75.93
2022-09-16T18:38:44.579Z,75.66
2022-09-16T18:41:13.227Z,75.67
2022-09-16T18:43:44.213Z,76.57
2022-09-16T18:46:13.506Z,76.60
2022-09-16T18:48:41.623Z,76.53
2022-09-16T18:51:15.757Z,77.27
2022-09-16T18:53:42.468Z,77.46
2022-09-16T18:56:11.440Z,77.93
2022-09-16T18:58:38.102Z,78.49
2022-09-16T19:01:08.218Z,78.93
2022-09-16T19:03:35.069Z,78.33
2022-09-16T19:06:01.684Z,78.90
2022-09-16T19:08:28.277Z,79.19
2022-09-16T19:10:54.798Z,79.72
2022-09-16T19:13:21.406Z,79.94
2022-09-16T19:15:47.905Z,80.44
2022-09-16T19:18:16.044Z,80.66
2022-09-16T19:20:43.862Z,80.34
2022-09-16T19:23:10.423Z,80.87
2022-09-16T19:25:36.943Z,81.04
2022-09-16T19:28:03.571Z,81.15
2022-09-16T19:30:30.136Z,81.03
2022-09-16T19:32:56.813Z,81.44
2022-09-16T19:35:30.649Z,81.84
2022-09-16T19:37:57.267Z,81.47
2022-09-16T19:40:23.891Z,81.93
2022-09-16T19:42:50.571Z,82.05
2022-09-16T19:45:17.550Z,81.72
2022-09-16T19:47:44.370Z,82.73
2022-09-16T19:50:11.272Z,83.00
2022-09-16T19:52:39.246Z,82.91
2022-09-16T19:55:06.980Z,83.03
2022-09-16T19:57:34.023Z,83.18
2022-09-16T20:00:01.136Z,82.98
2022-09-16T20:02:28.013Z,82.75
2022-09-16T20:04:54.609Z,83.36
2022-09-16T20:07:21.243Z,83.62
2022-09-16T20:09:49.213Z,83.77
2022-09-16T20:12:15.913Z,84.34
2022-09-16T20:14:42.620Z,85.04
2022-09-16T20:17:09.183Z,84.89
2022-09-16T20:19:35.777Z,84.65
2022-09-16T20:22:02.439Z,84.80
2022-09-16T20:24:29.089Z,85.07
2022-09-16T20:26:57.125Z,85.54
2022-09-16T20:29:24.044Z,86.81
2022-09-16T20:31:51.560Z,86.26
2022-09-16T20:34:18.235Z,86.51
2022-09-16T20:36:45.636Z,86.53
2022-09-16T20:39:13.231Z,86.15
2022-09-16T20:41:40.530Z,86.70
2022-09-16T20:44:12.654Z,87.42
2022-09-16T20:46:39.259Z,87.71
2022-09-16T20:49:07.451Z,87.21
2022-09-16T20:51:34.768Z,86.90
2022-09-16T20:54:07.036Z,86.40
2022-09-16T20:56:38.378Z,86.19
2022-09-16T20:59:06.301Z,86.13
2022-09-16T21:01:35.383Z,85.82
2022-09-16T21:04:04.011Z,86.18
2022-09-16T21:06:31.568Z,86.72
2022-09-16T21:08:59.911Z,86.80
2022-09-16T21:11:28.291Z,86.68
2022-09-16T21:13:56.570Z,86.85
2022-09-16T21:16:24.342Z,87.51
2022-09-16T21:18:54.937Z,87.48
2022-09-16T21:21:21.745Z,87.48
2022-09-16T21:23:49.320Z,87.33
2022-09-16T21:26:17.645Z,87.53
2022-09-16T21:28:45.510Z,87.31
2022-09-16T21:31:14.098Z,87.27
2022-09-16T21:33:43.168Z,87.44
2022-09-16T21:36:13.099Z,87.28
2022-09-16T21:38:40.546Z,87.48
2022-09-16T21:41:10.804Z,87.62
2022-09-16T21:43:38.894Z,87.31
2022-09-16T21:46:05.741Z,87.08
2022-09-16T21:48:32.870Z,87.42
2022-09-16T21:51:02.204Z,87.27
2022-09-16T21:53:31.614Z,87.17
2022-09-16T21:56:00.740Z,87.17
2022-09-16T21:58:27.317Z,87.21
2022-09-16T22:01:04.930Z,87.19
2022-09-16T22:03:31.712Z,87.51
2022-09-16T22:05:58.724Z,87.88
2022-09-16T22:08:25.368Z,87.33
2022-09-16T22:10:53.187Z,87.50
2022-09-16T22:13:19.776Z,87.48
2022-09-16T22:15:49.622Z,87.20
2022-09-16T22:18:16.357Z,87.21
2022-09-16T22:20:43.090Z,87.14
2022-09-16T22:23:09.703Z,87.55
2022-09-16T22:25:36.242Z,87.52
2022-09-16T22:28:04.669Z,87.84
2022-09-16T22:30:31.238Z,88.03
2022-09-16T22:32:57.834Z,88.47
2022-09-16T22:35:24.375Z,88.63
2022-09-16T22:37:51.144Z,88.53
2022-09-16T22:40:17.738Z,88.45
2022-09-16T22:42:44.733Z,88.28
2022-09-16T22:45:12.630Z,88.33
2022-09-16T22:47:39.305Z,88.53
2022-09-16T22:50:06.836Z,88.26
2022-09-16T22:52:33.451Z,87.90
2022-09-16T22:54:59.955Z,88.11
2022-09-16T22:57:28.439Z,87.84
2022-09-16T22:59:55.027Z,87.65
2022-09-16T23:02:23.090Z,87.54
2022-09-16T23:04:49.622Z,87.59
2022-09-16T23:07:16.407Z,87.88
2022-09-16T23:09:42.932Z,87.78
2022-09-16T23:12:09.534Z,88.05
2022-09-16T23:14:36.081Z,87.98
2022-09-16T23:17:02.711Z,87.87
2022-09-16T23:19:30.559Z,87.42
2022-09-16T23:21:57.292Z,87.42
2022-09-16T23:24:24.025Z,87.23
2022-09-16T23:26:50.626Z,86.89
2022-09-16T23:29:17.616Z,86.80
2022-09-16T23:31:44.930Z,86.53
2022-09-16T23:34:14.648Z,86.60
2022-09-16T23:36:43.086Z,86.48
2022-09-16T23:39:12.623Z,85.71
2022-09-16T23:41:39.789Z,85.46
2022-09-16T23:44:11.926Z,85.51
2022-09-16T23:46:38.539Z,85.33
2022-09-16T23:49:05.132Z,85.16
2022-09-16T23:51:31.867Z,84.97
2022-09-16T23:54:00.092Z,84.50
2022-09-16T23:56:27.503Z,84.76
2022-09-16T23:58:58.310Z,84.06
